Time,TemperatureF,DewpointF,PressureIn,WindDirection,WindDirectionDegrees,WindSpeedMPH,WindSpeedGustMPH,Humidity,HourlyPrecipIn,Conditions,Clouds,dailyrainin,SoftwareType,DateUTC
2013-05-21 00:00:00,69.3,68.7,30.06,NNW,343,0.0,2.0,98,0.00,,CLR,0.74,VWS V14.01,2013-05-21 04:00:00,
2013-05-21 00:01:00,69.2,68.6,30.06,NNW,343,0.0,0.0,98,0.00,,CLR,0.00,VWS V14.01,2013-05-21 04:01:00,
2013-05-21 00:06:00,69.2,68.6,30.06,NNW,343,0.0,0.0,98,0.00,,CLR,0.00,VWS V14.01,2013-05-21 04:06:00,
2013-05-21 00:11:00,69.2,68.6,30.05,NNW,343,0.0,0.0,98,0.00,,CLR,0.00,VWS V14.01,2013-05-21 04:11:00,
2013-05-21 00:15:00,69.2,68.6,30.06,NNW,343,0.0,1.0,98,0.00,,CLR,0.00,VWS V14.01,2013-05-21 04:15:00,
2013-05-21 00:16:00,69.2,68.6,30.05,NNW,342,0.0,1.0,98,0.00,,CLR,0.00,VWS V14.01,2013-05-21 04:16:00,
2013-05-21 00:21:00,69.1,68.5,30.05,NNW,342,0.0,1.0,98,0.00,,CLR,0.00,VWS V14.01,2013-05-21 04:21:00,
2013-05-21 00:26:00,69.1,68.5,30.05,NNW,342,0.0,1.0,98,0.00,,CLR,0.00,VWS V14.01,2013-05-21 04:26:00,
2013-05-21 00:30:00,69.1,68.5,30.05,NNW,342,0.0,1.0,98,0.00,,CLR,0.00,VWS V14.01,2013-05-21 04:30:00,
2013-05-21 00:31:00,69.0,68.4,30.05,SW,228,0.0,2.0,98,0.00,,CLR,0.00,VWS V14.01,2013-05-21 04:31:00,
2013-05-21 00:36:00,69.0,68.4,30.05,SW,228,0.0,2.0,98,0.00,,CLR,0.00,VWS V14.01,2013-05-21 04:36:00,
2013-05-21 00:41:00,69.0,68.4,30.05,SW,228,0.0,1.0,98,0.00,,CLR,0.00,VWS V14.01,2013-05-21 04:41:00,
2013-05-21 00:45:00,69.0,68.4,30.05,SW,228,0.0,2.0,98,0.00,,CLR,0.00,VWS V14.01,2013-05-21 04:45:00,
2013-05-21 00:46:00,68.9,68.3,30.05,SW,225,0.0,1.0,98,0.00,,CLR,0.00,VWS V14.01,2013-05-21 04:46:00,
2013-05-21 00:51:00,69.0,68.4,30.05,SW,225,0.0,1.0,98,0.00,,CLR,0.00,VWS V14.01,2013-05-21 04:51:00,
2013-05-21 00:56:00,69.0,68.4,30.05,SW,225,0.0,1.0,98,0.00,,CLR,0.00,VWS V14.01,2013-05-21 04:56:00,
2013-05-21 01:00:00,69.0,68.4,30.05,SW,225,0.0,1.0,98,0.00,,CLR,0.00,VWS V14.01,2013-05-21 05:00:00,
2013-05-21 01:01:00,69.0,68.4,30.05,SW,225,0.0,1.0,98,0.00,,CLR,0.00,VWS V14.01,2013-05-21 05:01:00,
2013-05-21 01:06:00,69.0,68.4,30.05,SW,223,0.0,1.0,98,0.00,,CLR,0.00,VWS V14.01,2013-05-21 05:06:00,
2013-05-21 01:11:00,69.0,68.4,30.05,SW,223,1.0,1.0,98,0.00,,CLR,0.00,VWS V14.01,2013-05-21 05:11:00,
2013-05-21 01:15:00,69.0,68.4,30.05,SW,223,0.0,1.0,98,0.00,,CLR,0.00,VWS V14.01,2013-05-21 05:15:00,
2013-05-21 01:16:00,69.0,68.4,30.05,SW,223,0.0,1.0,98,0.00,,CLR,0.00,VWS V14.01,2013-05-21 05:16:00,
2013-05-21 01:21:00,68.9,68.3,30.05,SW,223,0.0,1.0,98,0.00,,CLR,0.00,VWS V14.01,2013-05-21 05:21:00,
2013-05-21 01:26:00,68.7,68.1,30.05,SSW,204,0.0,1.0,98,0.00,,CLR,0.00,VWS V14.01,2013-05-21 05:26:00,
2013-05-21 01:30:00,68.8,68.2,30.05,SW,223,0.0,1.0,98,0.00,,CLR,0.00,VWS V14.01,2013-05-21 05:30:00,
2013-05-21 01:31:00,68.6,68.0,30.05,SW,226,0.0,1.0,98,0.00,,CLR,0.00,VWS V14.01,2013-05-21 05:31:00,
2013-05-21 01:36:00,68.5,67.9,30.05,SW,226,0.0,1.0,98,0.00,,CLR,0.00,VWS V14.01,2013-05-21 05:36:00,
2013-05-21 01:41:00,68.5,67.9,30.05,SW,226,0.0,0.0,98,0.00,,CLR,0.00,VWS V14.01,2013-05-21 05:41:00,
2013-05-21 01:45:00,68.5,67.9,30.05,SW,226,0.0,1.0,98,0.00,,CLR,0.00,VWS V14.01,2013-05-21 05:45:00,
2013-05-21 01:46:00,68.4,67.8,30.05,WNW,303,0.0,2.0,98,0.00,,CLR,0.00,VWS V14.01,2013-05-21 05:46:00,
2013-05-21 01:51:00,68.3,67.7,30.04,WNW,303,0.0,2.0,98,0.00,,CLR,0.00,VWS V14.01,2013-05-21 05:51:00,
2013-05-21 01:56:00,68.3,67.7,30.04,WNW,303,0.0,1.0,98,0.00,,CLR,0.00,VWS V14.01,2013-05-21 05:56:00,
2013-05-21 02:00:00,68.3,67.7,30.04,WNW,303,0.0,2.0,98,0.00,,CLR,0.00,VWS V14.01,2013-05-21 06:00:00,
2013-05-21 02:01:00,68.3,67.7,30.04,WNW,303,0.0,1.0,98,0.00,,CLR,0.00,VWS V14.01,2013-05-21 06:01:00,
2013-05-21 02:06:00,68.2,67.6,30.04,WNW,303,0.0,1.0,98,0.00,,CLR,0.00,VWS V14.01,2013-05-21 06:06:00,
2013-05-21 02:11:00,68.2,67.6,30.04,WNW,303,0.0,0.0,98,0.00,,CLR,0.00,VWS V14.01,2013-05-21 06:11:00,
2013-05-21 02:15:00,68.2,67.6,30.04,WNW,303,0.0,1.0,98,0.00,,CLR,0.00,VWS V14.01,2013-05-21 06:15:00,
2013-05-21 02:16:00,68.1,67.5,30.04,WNW,303,0.0,0.0,98,0.00,,CLR,0.00,VWS V14.01,2013-05-21 06:16:00,
2013-05-21 02:21:00,68.2,67.9,30.04,WNW,303,0.0,0.0,99,0.00,,CLR,0.00,VWS V14.01,2013-05-21 06:21:00,
2013-05-21 02:26:00,68.2,67.9,30.04,WNW,303,0.0,0.0,99,0.00,,CLR,0.00,VWS V14.01,2013-05-21 06:26:00,
2013-05-21 02:30:00,68.2,67.9,30.04,WNW,303,0.0,0.0,99,0.00,,CLR,0.00,VWS V14.01,2013-05-21 06:30:00,
2013-05-21 02:31:00,68.2,67.9,30.04,WNW,303,0.0,0.0,99,0.00,,CLR,0.00,VWS V14.01,2013-05-21 06:31:00,
2013-05-21 02:36:00,68.2,67.9,30.04,WNW,303,0.0,0.0,99,0.00,,CLR,0.00,VWS V14.01,2013-05-21 06:36:00,
2013-05-21 02:41:00,68.2,67.9,30.04,WNW,303,0.0,0.0,99,0.00,,CLR,0.00,VWS V14.01,2013-05-21 06:41:00,
2013-05-21 02:45:00,68.3,68.0,30.04,WNW,303,0.0,0.0,99,0.00,,CLR,0.00,VWS V14.01,2013-05-21 06:45:00,
2013-05-21 02:46:00,68.2,67.9,30.03,WNW,303,0.0,0.0,99,0.00,,CLR,0.00,VWS V14.01,2013-05-21 06:46:00,
2013-05-21 02:51:00,68.1,67.8,30.03,WNW,303,0.0,0.0,99,0.00,,CLR,0.00,VWS V14.01,2013-05-21 06:51:00,
2013-05-21 02:56:00,68.1,67.8,30.04,WNW,303,0.0,0.0,99,0.00,,CLR,0.00,VWS V14.01,2013-05-21 06:56:00,
2013-05-21 03:00:00,68.1,67.8,30.03,WNW,303,0.0,0.0,99,0.00,,CLR,0.00,VWS V14.01,2013-05-21 07:00:00,
2013-05-21 03:01:00,68.1,67.8,30.03,WNW,303,0.0,0.0,99,0.00,,CLR,0.00,VWS V14.01,2013-05-21 07:01:00,
2013-05-21 03:06:00,68.1,67.8,30.03,WNW,303,0.0,0.0,99,0.00,,CLR,0.00,VWS V14.01,2013-05-21 07:06:00,
2013-05-21 03:11:00,68.0,67.7,30.04,WNW,303,0.0,0.0,99,0.00,,CLR,0.00,VWS V14.01,2013-05-21 07:11:00,
2013-05-21 03:15:00,68.0,67.7,30.03,WNW,303,0.0,0.0,99,0.00,,CLR,0.00,VWS V14.01,2013-05-21 07:15:00,
2013-05-21 03:16:00,68.0,67.7,30.04,NW,311,0.0,1.0,99,0.00,,CLR,0.00,VWS V14.01,2013-05-21 07:16:00,
2013-05-21 03:21:00,67.9,67.6,30.04,WSW,246,0.0,2.0,99,0.00,,CLR,0.00,VWS V14.01,2013-05-21 07:21:00,
2013-05-21 03:26:00,67.9,67.6,30.03,WSW,246,0.0,1.0,99,0.00,,CLR,0.00,VWS V14.01,2013-05-21 07:26:00,
2013-05-21 03:30:00,67.9,67.6,30.04,WSW,246,0.0,2.0,99,0.00,,CLR,0.00,VWS V14.01,2013-05-21 07:30:00,
2013-05-21 03:31:00,67.9,67.6,30.04,WSW,245,0.0,1.0,99,0.00,,CLR,0.00,VWS V14.01,2013-05-21 07:31:00,
2013-05-21 03:36:00,67.9,67.6,30.03,WSW,245,0.0,1.0,99,0.00,,CLR,0.00,VWS V14.01,2013-05-21 07:36:00,
2013-05-21 03:41:00,67.9,67.3,30.03,WSW,245,0.0,0.0,98,0.00,,CLR,0.00,VWS V14.01,2013-05-21 07:41:00,
2013-05-21 03:45:00,67.9,67.6,30.03,WSW,245,0.0,1.0,99,0.00,,CLR,0.00,VWS V14.01,2013-05-21 07:45:00,
2013-05-21 03:46:00,67.9,67.3,30.03,WSW,245,0.0,0.0,98,0.00,,CLR,0.00,VWS V14.01,2013-05-21 07:46:00,
2013-05-21 03:51:00,67.9,67.3,30.04,WSW,245,0.0,0.0,98,0.00,,CLR,0.00,VWS V14.01,2013-05-21 07:51:00,
2013-05-21 03:56:00,67.9,67.6,30.04,WSW,245,0.0,0.0,99,0.00,,CLR,0.00,VWS V14.01,2013-05-21 07:56:00,
2013-05-21 04:00:00,67.9,67.6,30.03,WSW,245,0.0,0.0,99,0.00,,CLR,0.00,VWS V14.01,2013-05-21 08:00:00,
2013-05-21 04:01:00,67.9,67.6,30.03,SW,227,0.0,1.0,99,0.03,,CLR,0.03,VWS V14.01,2013-05-21 08:01:00,
2013-05-21 04:06:00,68.0,67.7,30.03,SW,227,0.0,1.0,99,0.03,,CLR,0.03,VWS V14.01,2013-05-21 08:06:00,
2013-05-21 04:11:00,68.0,67.7,30.03,SW,227,0.0,0.0,99,0.03,,CLR,0.03,VWS V14.01,2013-05-21 08:11:00,
2013-05-21 04:15:00,67.9,67.6,30.03,SW,227,0.0,1.0,99,0.03,,CLR,0.03,VWS V14.01,2013-05-21 08:15:00,
2013-05-21 04:16:00,68.0,67.7,30.04,SW,227,0.0,0.0,99,0.03,,CLR,0.03,VWS V14.01,2013-05-21 08:16:00,
2013-05-21 04:21:00,68.0,67.7,30.04,SW,227,0.0,0.0,99,0.06,,CLR,0.06,VWS V14.01,2013-05-21 08:21:00,
2013-05-21 04:26:00,68.0,67.7,30.04,SW,227,0.0,0.0,99,0.07,,CLR,0.07,VWS V14.01,2013-05-21 08:26:00,
2013-05-21 04:30:00,68.0,67.7,30.04,SW,227,0.0,0.0,99,0.06,,CLR,0.06,VWS V14.01,2013-05-21 08:30:00,
2013-05-21 04:31:00,68.0,67.7,30.04,SW,226,0.0,1.0,99,0.13,,CLR,0.13,VWS V14.01,2013-05-21 08:31:00,
2013-05-21 04:36:00,68.0,67.7,30.04,SW,226,0.0,1.0,99,0.16,,CLR,0.16,VWS V14.01,2013-05-21 08:36:00,
2013-05-21 04:41:00,68.0,67.7,30.04,SW,226,0.0,0.0,99,0.16,,CLR,0.16,VWS V14.01,2013-05-21 08:41:00,
2013-05-21 04:45:00,68.0,67.7,30.04,SW,226,0.0,1.0,99,0.16,,CLR,0.16,VWS V14.01,2013-05-21 08:45:00,
2013-05-21 04:46:00,68.0,67.7,30.04,SW,226,0.0,0.0,99,0.16,,CLR,0.16,VWS V14.01,2013-05-21 08:46:00,
2013-05-21 04:51:00,68.0,67.7,30.04,SW,217,0.0,0.0,99,0.16,,CLR,0.16,VWS V14.01,2013-05-21 08:51:00,
2013-05-21 04:56:00,67.9,67.6,30.04,SW,217,0.0,0.0,99,0.16,,CLR,0.16,VWS V14.01,2013-05-21 08:56:00,
2013-05-21 05:00:00,67.9,67.6,30.04,SW,217,0.0,0.0,99,0.16,,CLR,0.16,VWS V14.01,2013-05-21 09:00:00,
2013-05-21 05:01:00,67.9,67.6,30.04,SW,217,0.0,0.0,99,0.16,,CLR,0.16,VWS V14.01,2013-05-21 09:01:00,
2013-05-21 05:06:00,67.9,67.6,30.04,SW,217,0.0,0.0,99,0.16,,CLR,0.16,VWS V14.01,2013-05-21 09:06:00,
2013-05-21 05:11:00,67.9,67.6,30.05,SW,217,0.0,0.0,99,0.13,,CLR,0.16,VWS V14.01,2013-05-21 09:11:00,
2013-05-21 05:15:00,67.9,67.6,30.04,SW,217,0.0,0.0,99,0.16,,CLR,0.16,VWS V14.01,2013-05-21 09:15:00,
2013-05-21 05:16:00,67.9,67.6,30.04,SW,217,0.0,0.0,99,0.13,,CLR,0.16,VWS V14.01,2013-05-21 09:16:00,
2013-05-21 05:21:00,67.9,67.6,30.04,SW,217,0.0,0.0,99,0.13,,CLR,0.16,VWS V14.01,2013-05-21 09:21:00,
2013-05-21 05:26:00,67.8,67.5,30.05,SW,217,0.0,0.0,99,0.10,,CLR,0.16,VWS V14.01,2013-05-21 09:26:00,
2013-05-21 05:30:00,67.8,67.5,30.04,SW,217,0.0,0.0,99,0.13,,CLR,0.16,VWS V14.01,2013-05-21 09:30:00,
2013-05-21 05:31:00,67.8,67.5,30.05,SW,217,0.0,1.0,99,0.10,,CLR,0.16,VWS V14.01,2013-05-21 09:31:00,
2013-05-21 05:36:00,67.8,67.5,30.05,SW,217,0.0,1.0,99,0.10,,CLR,0.16,VWS V14.01,2013-05-21 09:36:00,
2013-05-21 05:41:00,67.8,67.5,30.06,SW,217,0.0,0.0,99,0.00,,CLR,0.16,VWS V14.01,2013-05-21 09:41:00,
2013-05-21 05:45:00,67.8,67.5,30.06,SW,217,0.0,1.0,99,0.10,,CLR,0.16,VWS V14.01,2013-05-21 09:45:00,
2013-05-21 05:46:00,67.8,67.5,30.06,SW,217,0.0,0.0,99,0.00,,CLR,0.16,VWS V14.01,2013-05-21 09:46:00,
2013-05-21 05:51:00,67.7,67.4,30.06,SW,217,0.0,0.0,99,0.00,,CLR,0.16,VWS V14.01,2013-05-21 09:51:00,
2013-05-21 05:56:00,67.7,67.4,30.06,SW,217,0.0,0.0,99,0.00,,CLR,0.16,VWS V14.01,2013-05-21 09:56:00,
2013-05-21 06:00:00,67.7,67.4,30.06,SW,217,0.0,0.0,99,0.00,,CLR,0.16,VWS V14.01,2013-05-21 10:00:00,
2013-05-21 06:01:00,67.7,67.4,30.07,SW,217,0.0,1.0,99,0.00,,CLR,0.16,VWS V14.01,2013-05-21 10:01:00,
2013-05-21 06:06:00,67.7,67.4,30.07,SW,217,0.0,1.0,99,0.00,,CLR,0.16,VWS V14.01,2013-05-21 10:06:00,
2013-05-21 06:11:00,67.8,67.5,30.07,SW,217,0.0,0.0,99,0.00,,CLR,0.16,VWS V14.01,2013-05-21 10:11:00,
2013-05-21 06:15:00,67.7,67.4,30.07,SW,217,0.0,1.0,99,0.00,,CLR,0.16,VWS V14.01,2013-05-21 10:15:00,
2013-05-21 06:16:00,67.9,67.6,30.07,SW,217,0.0,0.0,99,0.00,,CLR,0.16,VWS V14.01,2013-05-21 10:16:00,
2013-05-21 06:21:00,67.9,67.6,30.07,SW,217,0.0,0.0,99,0.00,,CLR,0.16,VWS V14.01,2013-05-21 10:21:00,
2013-05-21 06:26:00,67.8,67.5,30.07,SW,217,0.0,1.0,99,0.00,,CLR,0.16,VWS V14.01,2013-05-21 10:26:00,
2013-05-21 06:30:00,67.8,67.5,30.07,SW,217,0.0,1.0,99,0.00,,CLR,0.16,VWS V14.01,2013-05-21 10:30:00,
2013-05-21 06:31:00,67.7,67.4,30.07,SW,217,0.0,1.0,99,0.00,,CLR,0.16,VWS V14.01,2013-05-21 10:31:00,
2013-05-21 06:36:00,67.7,67.4,30.07,SW,217,0.0,1.0,99,0.00,,CLR,0.16,VWS V14.01,2013-05-21 10:36:00,
2013-05-21 06:41:00,67.7,67.4,30.07,SW,217,0.0,1.0,99,0.00,,CLR,0.16,VWS V14.01,2013-05-21 10:41:00,
2013-05-21 06:45:00,67.7,67.4,30.07,SW,217,0.0,1.0,99,0.00,,CLR,0.16,VWS V14.01,2013-05-21 10:45:00,
2013-05-21 06:46:00,67.8,67.5,30.08,SW,217,0.0,1.0,99,0.00,,CLR,0.16,VWS V14.01,2013-05-21 10:46:00,
2013-05-21 06:51:00,67.8,67.5,30.08,SSW,207,0.0,1.0,99,0.00,,CLR,0.16,VWS V14.01,2013-05-21 10:51:00,
2013-05-21 06:56:00,67.9,67.6,30.08,SSW,207,0.0,0.0,99,0.00,,CLR,0.16,VWS V14.01,2013-05-21 10:56:00,
2013-05-21 07:00:00,67.8,67.5,30.08,SSW,207,0.0,1.0,99,0.00,,CLR,0.16,VWS V14.01,2013-05-21 11:00:00,
2013-05-21 07:01:00,67.9,67.6,30.08,SSW,207,0.0,0.0,99,0.00,,CLR,0.16,VWS V14.01,2013-05-21 11:01:00,
2013-05-21 07:06:00,68.0,67.7,30.08,West,276,0.0,2.0,99,0.00,,CLR,0.16,VWS V14.01,2013-05-21 11:06:00,
2013-05-21 07:11:00,68.0,67.7,30.08,NNW,345,0.0,1.0,99,0.00,,CLR,0.16,VWS V14.01,2013-05-21 11:11:00,
2013-05-21 07:15:00,68.0,67.7,30.08,West,276,0.0,2.0,99,0.00,,CLR,0.16,VWS V14.01,2013-05-21 11:15:00,
2013-05-21 07:16:00,67.9,67.6,30.08,NNW,345,0.0,1.0,99,0.00,,CLR,0.16,VWS V14.01,2013-05-21 11:16:00,
2013-05-21 07:21:00,67.9,67.6,30.08,NW,323,0.0,1.0,99,0.00,,CLR,0.16,VWS V14.01,2013-05-21 11:21:00,
2013-05-21 07:26:00,67.9,67.6,30.08,NW,323,0.0,0.0,99,0.00,,CLR,0.16,VWS V14.01,2013-05-21 11:26:00,
2013-05-21 07:30:00,67.9,67.6,30.08,NW,323,0.0,1.0,99,0.00,,CLR,0.16,VWS V14.01,2013-05-21 11:30:00,
2013-05-21 07:31:00,68.0,67.7,30.08,NW,323,0.0,0.0,99,0.00,,CLR,0.16,VWS V14.01,2013-05-21 11:31:00,
2013-05-21 07:36:00,68.1,67.8,30.08,NW,323,0.0,0.0,99,0.00,,CLR,0.16,VWS V14.01,2013-05-21 11:36:00,
2013-05-21 07:41:00,68.1,67.8,30.08,NW,323,0.0,0.0,99,0.00,,CLR,0.16,VWS V14.01,2013-05-21 11:41:00,
2013-05-21 07:45:00,68.1,67.8,30.08,NW,323,0.0,0.0,99,0.00,,CLR,0.16,VWS V14.01,2013-05-21 11:45:00,
2013-05-21 07:46:00,68.2,67.9,30.08,NW,323,0.0,0.0,99,0.00,,CLR,0.16,VWS V14.01,2013-05-21 11:46:00,
2013-05-21 07:51:00,68.3,68.0,30.08,NW,323,0.0,0.0,99,0.00,,CLR,0.16,VWS V14.01,2013-05-21 11:51:00,
2013-05-21 07:56:00,68.4,68.1,30.08,East,91,0.0,1.0,99,0.00,,CLR,0.16,VWS V14.01,2013-05-21 11:56:00,
2013-05-21 08:00:00,68.4,68.1,30.08,NNW,337,0.0,0.0,99,0.00,,CLR,0.16,VWS V14.01,2013-05-21 12:00:00,
2013-05-21 08:01:00,68.5,68.2,30.08,ESE,103,0.0,1.0,99,0.00,,CLR,0.16,VWS V14.01,2013-05-21 12:01:00,
2013-05-21 08:06:00,68.7,68.4,30.08,ESE,103,0.0,1.0,99,0.00,,CLR,0.16,VWS V14.01,2013-05-21 12:06:00,
2013-05-21 08:11:00,68.9,68.6,30.08,ESE,103,0.0,0.0,99,0.00,,CLR,0.16,VWS V14.01,2013-05-21 12:11:00,
2013-05-21 08:15:00,68.8,68.5,30.08,ESE,103,0.0,1.0,99,0.00,,CLR,0.16,VWS V14.01,2013-05-21 12:15:00,
2013-05-21 08:16:00,69.0,68.7,30.08,ESE,103,0.0,1.0,99,0.00,,CLR,0.16,VWS V14.01,2013-05-21 12:16:00,
2013-05-21 08:21:00,69.0,68.7,30.08,NW,304,0.0,2.0,99,0.00,,CLR,0.16,VWS V14.01,2013-05-21 12:21:00,
2013-05-21 08:26:00,69.1,68.8,30.08,NW,304,0.0,1.0,99,0.00,,CLR,0.16,VWS V14.01,2013-05-21 12:26:00,
2013-05-21 08:30:00,69.0,68.7,30.08,NW,304,0.0,2.0,99,0.00,,CLR,0.16,VWS V14.01,2013-05-21 12:30:00,
2013-05-21 08:31:00,69.4,69.1,30.08,NW,304,0.0,1.0,99,0.00,,CLR,0.16,VWS V14.01,2013-05-21 12:31:00,
2013-05-21 08:36:00,69.7,69.4,30.08,NW,304,0.0,1.0,99,0.00,,CLR,0.16,VWS V14.01,2013-05-21 12:36:00,
2013-05-21 08:41:00,70.0,69.7,30.08,South,191,0.0,1.0,99,0.00,,CLR,0.16,VWS V14.01,2013-05-21 12:41:00,
2013-05-21 08:45:00,69.8,69.5,30.08,NW,304,0.0,1.0,99,0.00,,CLR,0.16,VWS V14.01,2013-05-21 12:45:00,
2013-05-21 08:46:00,70.1,69.8,30.08,South,191,0.0,1.0,99,0.00,,CLR,0.16,VWS V14.01,2013-05-21 12:46:00,
2013-05-21 08:51:00,70.2,69.9,30.08,South,190,0.0,1.0,99,0.00,,CLR,0.16,VWS V14.01,2013-05-21 12:51:00,
2013-05-21 08:56:00,70.1,69.8,30.08,SSW,198,0.0,1.0,99,0.00,,CLR,0.16,VWS V14.01,2013-05-21 12:56:00,
2013-05-21 09:00:00,70.2,69.9,30.08,SSW,197,1.0,1.0,99,0.00,,CLR,0.16,VWS V14.01,2013-05-21 13:00:00,
2013-05-21 09:01:00,70.1,69.8,30.08,SSW,198,0.0,1.0,99,0.00,,CLR,0.16,VWS V14.01,2013-05-21 13:01:00,
2013-05-21 09:06:00,70.1,69.5,30.08,SSW,198,0.0,1.0,98,0.00,,CLR,0.16,VWS V14.01,2013-05-21 13:06:00,
2013-05-21 09:11:00,70.2,69.6,30.08,SSW,198,0.0,0.0,98,0.00,,CLR,0.16,VWS V14.01,2013-05-21 13:11:00,
2013-05-21 09:15:00,70.2,69.6,30.08,SSW,198,0.0,1.0,98,0.00,,CLR,0.16,VWS V14.01,2013-05-21 13:15:00,
2013-05-21 09:16:00,70.1,69.5,30.08,SSW,198,0.0,1.0,98,0.00,,CLR,0.16,VWS V14.01,2013-05-21 13:16:00,
2013-05-21 09:21:00,70.2,69.6,30.08,SSW,198,0.0,1.0,98,0.00,,CLR,0.16,VWS V14.01,2013-05-21 13:21:00,
2013-05-21 09:26:00,70.3,69.7,30.08,SSW,198,0.0,0.0,98,0.00,,CLR,0.16,VWS V14.01,2013-05-21 13:26:00,
2013-05-21 09:30:00,70.2,69.6,30.08,SSW,198,0.0,1.0,98,0.00,,CLR,0.16,VWS V14.01,2013-05-21 13:30:00,
2013-05-21 09:31:00,70.4,69.8,30.08,SSW,198,0.0,0.0,98,0.00,,CLR,0.16,VWS V14.01,2013-05-21 13:31:00,
2013-05-21 09:36:00,70.5,69.9,30.08,SSW,196,0.0,1.0,98,0.00,,CLR,0.16,VWS V14.01,2013-05-21 13:36:00,
2013-05-21 09:41:00,70.6,69.7,30.08,SSW,196,0.0,0.0,97,0.00,,CLR,0.16,VWS V14.01,2013-05-21 13:41:00,
2013-05-21 09:45:00,70.5,69.6,30.08,SSW,196,0.0,1.0,97,0.00,,CLR,0.16,VWS V14.01,2013-05-21 13:45:00,
2013-05-21 09:46:00,70.7,69.8,30.09,SSW,196,0.0,0.0,97,0.00,,CLR,0.16,VWS V14.01,2013-05-21 13:46:00,
2013-05-21 09:51:00,71.0,70.1,30.09,SSW,196,0.0,1.0,97,0.00,,CLR,0.16,VWS V14.01,2013-05-21 13:51:00,
2013-05-21 09:56:00,71.4,70.5,30.08,SSW,196,0.0,0.0,97,0.00,,CLR,0.16,VWS V14.01,2013-05-21 13:56:00,
2013-05-21 10:00:00,71.1,70.2,30.09,SSW,196,0.0,1.0,97,0.00,,CLR,0.16,VWS V14.01,2013-05-21 14:00:00,
2013-05-21 10:01:00,71.5,70.3,30.09,SSW,192,0.0,1.0,96,0.00,,CLR,0.16,VWS V14.01,2013-05-21 14:01:00,
2013-05-21 10:06:00,71.8,70.6,30.08,SSW,192,0.0,1.0,96,0.00,,CLR,0.16,VWS V14.01,2013-05-21 14:06:00,
2013-05-21 10:11:00,72.1,70.6,30.08,SSE,165,0.0,1.0,95,0.00,,CLR,0.16,VWS V14.01,2013-05-21 14:11:00,
2013-05-21 10:15:00,72.6,71.1,30.08,SW,224,0.0,3.0,95,0.00,,CLR,0.16,VWS V14.01,2013-05-21 14:15:00,
2013-05-21 10:20:00,73.0,71.2,30.08,SW,223,0.0,3.0,94,0.00,,CLR,0.16,VWS V14.01,2013-05-21 14:20:00,
2013-05-21 10:25:00,73.2,71.1,30.08,SSE,155,0.0,0.0,93,0.00,,CLR,0.16,VWS V14.01,2013-05-21 14:25:00,
2013-05-21 10:30:00,73.3,70.8,30.09,SSE,168,0.0,2.0,92,0.00,,CLR,0.16,VWS V14.01,2013-05-21 14:30:00,
2013-05-21 10:36:00,73.4,70.9,30.09,SSE,168,0.0,2.0,92,0.00,,CLR,0.16,VWS V14.01,2013-05-21 14:36:00,
2013-05-21 10:41:00,73.7,71.6,30.08,SSE,168,0.0,0.0,93,0.00,,CLR,0.16,VWS V14.01,2013-05-21 14:41:00,
2013-05-21 10:45:00,73.5,71.0,30.09,SSE,168,0.0,2.0,92,0.00,,CLR,0.16,VWS V14.01,2013-05-21 14:45:00,
2013-05-21 10:46:00,74.0,71.5,30.08,SSE,168,0.0,0.0,92,0.00,,CLR,0.16,VWS V14.01,2013-05-21 14:46:00,
2013-05-21 10:50:00,74.3,71.5,30.08,SW,227,0.0,3.0,91,0.00,,CLR,0.16,VWS V14.01,2013-05-21 14:50:00,
2013-05-21 10:55:00,74.7,71.9,30.08,SSE,163,0.0,1.0,91,0.00,,CLR,0.16,VWS V14.01,2013-05-21 14:55:00,
2013-05-21 11:00:00,75.1,72.0,30.09,SSE,168,0.0,1.0,90,0.00,,CLR,0.16,VWS V14.01,2013-05-21 15:00:00,
2013-05-21 11:05:00,75.2,71.7,30.09,SSE,168,0.0,1.0,89,0.00,,CLR,0.16,VWS V14.01,2013-05-21 15:05:00,
2013-05-21 11:10:00,75.3,71.8,30.09,SSE,168,0.0,0.0,89,0.00,,CLR,0.16,VWS V14.01,2013-05-21 15:10:00,
2013-05-21 11:15:00,75.5,71.4,30.09,SSE,168,0.0,1.0,87,0.00,,CLR,0.16,VWS V14.01,2013-05-21 15:15:00,
2013-05-21 11:20:00,75.6,72.1,30.09,SSE,168,0.0,1.0,89,0.00,,CLR,0.16,VWS V14.01,2013-05-21 15:20:00,
2013-05-21 11:25:00,75.6,71.8,30.09,SSE,168,0.0,1.0,88,0.00,,CLR,0.16,VWS V14.01,2013-05-21 15:25:00,
2013-05-21 11:30:00,75.6,71.8,30.09,SSE,168,0.0,1.0,88,0.00,,CLR,0.16,VWS V14.01,2013-05-21 15:30:00,
2013-05-21 11:35:00,75.6,71.8,30.08,SSE,168,1.0,1.0,88,0.00,,CLR,0.16,VWS V14.01,2013-05-21 15:35:00,
2013-05-21 11:40:00,75.6,71.5,30.08,SSE,168,0.0,1.0,87,0.00,,CLR,0.16,VWS V14.01,2013-05-21 15:40:00,
2013-05-21 11:45:00,75.8,72.3,30.08,SSE,168,0.0,1.0,89,0.00,,CLR,0.16,VWS V14.01,2013-05-21 15:45:00,
2013-05-21 11:50:00,76.0,72.2,30.08,SSE,168,0.0,1.0,88,0.00,,CLR,0.16,VWS V14.01,2013-05-21 15:50:00,
2013-05-21 11:55:00,76.3,72.5,30.08,SSE,168,0.0,0.0,88,0.00,,CLR,0.16,VWS V14.01,2013-05-21 15:55:00,
2013-05-21 12:00:00,76.8,72.6,30.08,SSE,168,1.0,1.0,87,0.00,,CLR,0.16,VWS V14.01,2013-05-21 16:00:00,
2013-05-21 12:05:00,77.3,72.4,30.08,SSE,168,0.0,2.0,85,0.00,,CLR,0.16,VWS V14.01,2013-05-21 16:05:00,
2013-05-21 12:10:00,77.8,72.9,30.08,South,190,1.0,2.0,85,0.00,,CLR,0.16,VWS V14.01,2013-05-21 16:10:00,
2013-05-21 12:15:00,78.1,72.9,30.07,SSW,206,0.0,2.0,84,0.00,,CLR,0.16,VWS V14.01,2013-05-21 16:15:00,
2013-05-21 12:20:00,78.0,72.4,30.07,SW,215,1.0,2.0,83,0.00,,CLR,0.16,VWS V14.01,2013-05-21 16:20:00,
2013-05-21 12:25:00,78.1,72.9,30.07,SW,221,0.0,2.0,84,0.00,,CLR,0.16,VWS V14.01,2013-05-21 16:25:00,
2013-05-21 12:30:00,78.3,73.1,30.07,SSW,209,1.0,2.0,84,0.00,,CLR,0.16,VWS V14.01,2013-05-21 16:30:00,
2013-05-21 12:35:00,78.4,73.2,30.07,SW,233,0.0,2.0,84,0.00,,CLR,0.16,VWS V14.01,2013-05-21 16:35:00,
2013-05-21 12:40:00,78.8,73.6,30.07,SW,227,0.0,2.0,84,0.00,,CLR,0.16,VWS V14.01,2013-05-21 16:40:00,
2013-05-21 12:45:00,79.0,73.0,30.06,SSW,213,0.0,3.0,82,0.00,,CLR,0.16,VWS V14.01,2013-05-21 16:45:00,
2013-05-21 12:50:00,79.1,73.1,30.06,SSW,213,0.0,3.0,82,0.00,,CLR,0.16,VWS V14.01,2013-05-21 16:50:00,
2013-05-21 12:55:00,79.0,73.0,30.06,SSW,213,0.0,2.0,82,0.00,,CLR,0.16,VWS V14.01,2013-05-21 16:55:00,
2013-05-21 13:00:00,78.8,72.8,30.06,SSW,211,0.0,2.0,82,0.00,,CLR,0.16,VWS V14.01,2013-05-21 17:00:00,
2013-05-21 13:05:00,78.8,72.8,30.06,SSW,209,0.0,2.0,82,0.00,,CLR,0.16,VWS V14.01,2013-05-21 17:05:00,
2013-05-21 13:10:00,78.7,73.1,30.06,South,190,0.0,2.0,83,0.00,,CLR,0.16,VWS V14.01,2013-05-21 17:10:00,
2013-05-21 13:15:00,78.7,73.1,30.06,SSW,196,1.0,2.0,83,0.00,,CLR,0.16,VWS V14.01,2013-05-21 17:15:00,
2013-05-21 13:20:00,78.6,72.7,30.05,South,183,0.0,2.0,82,0.00,,CLR,0.16,VWS V14.01,2013-05-21 17:20:00,
2013-05-21 13:25:00,78.7,72.8,30.05,SSW,210,2.0,2.0,82,0.00,,CLR,0.16,VWS V14.01,2013-05-21 17:25:00,
2013-05-21 13:30:00,78.9,72.9,30.04,SSW,199,1.0,2.0,82,0.00,,CLR,0.16,VWS V14.01,2013-05-21 17:30:00,
2013-05-21 13:35:00,79.0,73.0,30.04,SW,219,0.0,2.0,82,0.00,,CLR,0.16,VWS V14.01,2013-05-21 17:35:00,
2013-05-21 13:40:00,79.3,73.3,30.04,South,178,0.0,2.0,82,0.00,,CLR,0.16,VWS V14.01,2013-05-21 17:40:00,
2013-05-21 13:45:00,79.6,73.3,30.04,South,178,1.0,2.0,81,0.00,,CLR,0.16,VWS V14.01,2013-05-21 17:45:00,
2013-05-21 13:50:00,79.8,73.1,30.04,South,170,0.0,2.0,80,0.00,,CLR,0.16,VWS V14.01,2013-05-21 17:50:00,
2013-05-21 13:55:00,80.1,73.4,30.04,South,170,0.0,1.0,80,0.00,,CLR,0.16,VWS V14.01,2013-05-21 17:55:00,
2013-05-21 14:00:00,80.3,73.6,30.04,SSE,163,0.0,3.0,80,0.00,,CLR,0.16,VWS V14.01,2013-05-21 18:00:00,
2013-05-21 14:15:00,80.2,73.5,30.04,SW,225,0.0,3.0,80,0.00,,CLR,0.16,VWS V14.01,2013-05-21 18:15:00,
2013-05-21 14:28:00,80.2,73.5,30.04,SW,225,0.0,3.0,80,0.00,,CLR,0.16,VWS V14.01,2013-05-21 18:28:00,
2013-05-21 14:30:00,78.6,72.7,30.05,SSW,209,1.0,2.0,82,0.00,,CLR,0.16,VWS V14.01,2013-05-21 18:30:00,
2013-05-21 14:33:00,81.2,74.1,30.03,SSW,207,1.0,1.0,79,0.00,,CLR,0.16,VWS V14.01,2013-05-21 18:33:00,
2013-05-21 14:38:00,81.5,74.4,30.03,SW,217,1.0,2.0,79,0.00,,CLR,0.16,VWS V14.01,2013-05-21 18:38:00,
2013-05-21 14:43:00,81.8,74.3,30.02,SW,218,0.0,2.0,78,0.00,,CLR,0.16,VWS V14.01,2013-05-21 18:43:00,
2013-05-21 14:45:00,81.5,74.4,30.03,SW,217,0.0,2.0,79,0.00,,CLR,0.16,VWS V14.01,2013-05-21 18:45:00,
2013-05-21 14:48:00,82.0,73.7,30.02,SW,217,0.0,2.0,76,0.00,,CLR,0.16,VWS V14.01,2013-05-21 18:48:00,
2013-05-21 14:53:00,82.3,74.4,30.02,SW,217,0.0,2.0,77,0.00,,CLR,0.16,VWS V14.01,2013-05-21 18:53:00,
2013-05-21 14:58:00,82.5,74.2,30.02,SW,215,0.0,1.0,76,0.00,,CLR,0.16,VWS V14.01,2013-05-21 18:58:00,
2013-05-21 15:00:00,82.3,74.4,30.02,SW,217,0.0,2.0,77,0.00,,CLR,0.16,VWS V14.01,2013-05-21 19:00:00,
2013-05-21 15:03:00,82.6,74.3,30.02,South,180,0.0,1.0,76,0.00,,CLR,0.16,VWS V14.01,2013-05-21 19:03:00,
2013-05-21 15:08:00,82.7,74.4,30.02,SSW,193,1.0,1.0,76,0.00,,CLR,0.16,VWS V14.01,2013-05-21 19:08:00,
2013-05-21 15:13:00,82.9,74.2,30.02,SSW,202,1.0,2.0,75,0.00,,CLR,0.16,VWS V14.01,2013-05-21 19:13:00,
2013-05-21 15:15:00,82.7,74.4,30.02,SSW,193,1.0,1.0,76,0.00,,CLR,0.16,VWS V14.01,2013-05-21 19:15:00,
2013-05-21 15:18:00,83.0,74.3,30.01,South,190,0.0,2.0,75,0.00,,CLR,0.16,VWS V14.01,2013-05-21 19:18:00,
2013-05-21 15:23:00,83.1,74.4,30.01,SSW,209,0.0,0.0,75,0.00,,CLR,0.16,VWS V14.01,2013-05-21 19:23:00,
2013-05-21 15:28:00,83.3,74.2,30.00,South,182,0.0,1.0,74,0.00,,CLR,0.16,VWS V14.01,2013-05-21 19:28:00,
2013-05-21 15:30:00,83.1,74.4,30.01,SSW,209,0.0,2.0,75,0.00,,CLR,0.16,VWS V14.01,2013-05-21 19:30:00,
2013-05-21 15:33:00,83.4,74.2,30.00,South,182,0.0,1.0,74,0.00,,CLR,0.16,VWS V14.01,2013-05-21 19:33:00,
2013-05-21 15:38:00,83.5,74.3,30.00,SSW,212,2.0,2.0,74,0.00,,CLR,0.16,VWS V14.01,2013-05-21 19:38:00,
2013-05-21 15:43:00,83.5,74.8,30.00,South,169,0.0,3.0,75,0.00,,CLR,0.16,VWS V14.01,2013-05-21 19:43:00,
2013-05-21 15:45:00,83.5,74.3,30.00,SSW,212,2.0,3.0,74,0.00,,CLR,0.16,VWS V14.01,2013-05-21 19:45:00,
2013-05-21 15:48:00,83.5,74.3,30.00,South,181,0.0,3.0,74,0.00,,CLR,0.16,VWS V14.01,2013-05-21 19:48:00,
2013-05-21 15:53:00,83.5,73.9,30.00,South,181,0.0,3.0,73,0.00,,CLR,0.16,VWS V14.01,2013-05-21 19:53:00,
2013-05-21 15:58:00,83.6,74.0,30.00,South,179,0.0,2.0,73,0.00,,CLR,0.16,VWS V14.01,2013-05-21 19:58:00,
2013-05-21 16:00:00,83.5,73.9,30.00,South,181,0.0,3.0,73,0.00,,CLR,0.16,VWS V14.01,2013-05-21 20:00:00,
2013-05-21 16:03:00,83.8,73.8,30.00,South,180,0.0,2.0,72,0.00,,CLR,0.16,VWS V14.01,2013-05-21 20:03:00,
2013-05-21 16:08:00,83.9,73.9,29.99,SSW,205,0.0,2.0,72,0.00,,CLR,0.16,VWS V14.01,2013-05-21 20:08:00,
2013-05-21 16:13:00,84.0,74.4,29.99,SW,215,0.0,2.0,73,0.00,,CLR,0.16,VWS V14.01,2013-05-21 20:13:00,
2013-05-21 16:15:00,83.9,73.9,29.99,SSW,205,0.0,2.0,72,0.00,,CLR,0.16,VWS V14.01,2013-05-21 20:15:00,
2013-05-21 16:18:00,84.0,74.0,29.98,SSE,160,0.0,4.0,72,0.00,,CLR,0.16,VWS V14.01,2013-05-21 20:18:00,
2013-05-21 16:23:00,83.9,73.9,29.99,SSW,206,1.0,4.0,72,0.00,,CLR,0.16,VWS V14.01,2013-05-21 20:23:00,
2013-05-21 16:28:00,83.5,73.9,29.99,South,190,0.0,2.0,73,0.00,,CLR,0.16,VWS V14.01,2013-05-21 20:28:00,
2013-05-21 16:30:00,83.9,73.9,29.99,SSW,206,1.0,4.0,72,0.00,,CLR,0.16,VWS V14.01,2013-05-21 20:30:00,
2013-05-21 16:33:00,83.1,73.6,29.99,SSE,164,0.0,3.0,73,0.00,,CLR,0.16,VWS V14.01,2013-05-21 20:33:00,
2013-05-21 16:38:00,82.7,73.6,29.99,SSE,164,1.0,3.0,74,0.00,,CLR,0.16,VWS V14.01,2013-05-21 20:38:00,
2013-05-21 16:43:00,82.4,73.3,29.99,WSW,245,4.0,4.0,74,0.00,,CLR,0.16,VWS V14.01,2013-05-21 20:43:00,
2013-05-21 16:45:00,82.7,73.6,29.99,SSE,164,2.0,3.0,74,0.00,,CLR,0.16,VWS V14.01,2013-05-21 20:45:00,
2013-05-21 16:48:00,82.1,73.0,29.99,SSW,211,0.0,4.0,74,0.00,,CLR,0.16,VWS V14.01,2013-05-21 20:48:00,
2013-05-21 16:53:00,81.8,73.1,29.99,SSW,204,0.0,4.0,75,0.00,,CLR,0.16,VWS V14.01,2013-05-21 20:53:00,
2013-05-21 16:58:00,81.5,72.8,29.99,South,186,0.0,5.0,75,0.00,,CLR,0.16,VWS V14.01,2013-05-21 20:58:00,
2013-05-21 17:00:00,81.8,73.1,29.99,SSW,204,0.0,4.0,75,0.00,,CLR,0.16,VWS V14.01,2013-05-21 21:00:00,
2013-05-21 17:03:00,81.3,73.0,29.99,South,181,1.0,5.0,76,0.00,,CLR,0.16,VWS V14.01,2013-05-21 21:03:00,
2013-05-21 17:08:00,81.1,72.8,29.99,South,190,0.0,5.0,76,0.00,,CLR,0.16,VWS V14.01,2013-05-21 21:08:00,
2013-05-21 17:13:00,81.0,73.1,29.99,South,190,0.0,1.0,77,0.00,,CLR,0.16,VWS V14.01,2013-05-21 21:13:00,
2013-05-21 17:15:00,81.1,72.8,29.99,South,190,0.0,5.0,76,0.00,,CLR,0.16,VWS V14.01,2013-05-21 21:15:00,
2013-05-21 17:18:00,80.8,72.9,29.99,South,190,0.0,1.0,77,0.00,,CLR,0.16,VWS V14.01,2013-05-21 21:18:00,
2013-05-21 17:23:00,80.8,73.3,29.99,South,190,0.0,1.0,78,0.00,,CLR,0.16,VWS V14.01,2013-05-21 21:23:00,
2013-05-21 17:28:00,80.6,73.1,29.99,South,179,0.0,2.0,78,0.00,,CLR,0.16,VWS V14.01,2013-05-21 21:28:00,
2013-05-21 17:30:00,80.8,73.3,29.99,South,190,0.0,1.0,78,0.00,,CLR,0.16,VWS V14.01,2013-05-21 21:30:00,
2013-05-21 17:33:00,80.3,73.2,29.99,South,179,0.0,2.0,79,0.00,,CLR,0.16,VWS V14.01,2013-05-21 21:33:00,
2013-05-21 17:38:00,79.9,72.8,29.98,SSW,205,0.0,3.0,79,0.00,,CLR,0.16,VWS V14.01,2013-05-21 21:38:00,
2013-05-21 17:43:00,79.7,73.4,29.98,South,184,0.0,2.0,81,0.00,,CLR,0.16,VWS V14.01,2013-05-21 21:43:00,
2013-05-21 17:45:00,79.9,72.8,29.98,SSW,205,0.0,3.0,79,0.00,,CLR,0.16,VWS V14.01,2013-05-21 21:45:00,
2013-05-21 17:48:00,79.4,72.7,29.98,SSE,168,0.0,3.0,80,0.00,,CLR,0.16,VWS V14.01,2013-05-21 21:48:00,
2013-05-21 17:53:00,79.2,72.5,29.98,SSE,168,0.0,3.0,80,0.00,,CLR,0.16,VWS V14.01,2013-05-21 21:53:00,
2013-05-21 17:58:00,79.0,73.0,29.98,SSE,168,0.0,1.0,82,0.00,,CLR,0.16,VWS V14.01,2013-05-21 21:58:00,
2013-05-21 18:00:00,79.2,72.5,29.98,SSE,168,0.0,3.0,80,0.00,,CLR,0.16,VWS V14.01,2013-05-21 22:00:00,
2013-05-21 18:03:00,78.8,72.8,29.97,SSE,168,0.0,2.0,82,0.00,,CLR,0.16,VWS V14.01,2013-05-21 22:03:00,
2013-05-21 18:08:00,78.7,72.8,29.98,SSE,166,0.0,2.0,82,0.00,,CLR,0.16,VWS V14.01,2013-05-21 22:08:00,
2013-05-21 18:13:00,78.5,72.6,29.98,SSE,166,0.0,1.0,82,0.00,,CLR,0.16,VWS V14.01,2013-05-21 22:13:00,
2013-05-21 18:15:00,78.6,72.7,29.98,SSE,166,0.0,2.0,82,0.00,,CLR,0.16,VWS V14.01,2013-05-21 22:15:00,
2013-05-21 18:18:00,78.4,72.4,29.99,SSE,166,0.0,1.0,82,0.00,,CLR,0.16,VWS V14.01,2013-05-21 22:18:00,
2013-05-21 18:23:00,78.4,72.8,29.99,SSE,166,0.0,1.0,83,0.00,,CLR,0.16,VWS V14.01,2013-05-21 22:23:00,
2013-05-21 18:28:00,78.3,72.4,29.99,South,190,1.0,1.0,82,0.00,,CLR,0.16,VWS V14.01,2013-05-21 22:28:00,
2013-05-21 18:30:00,78.4,72.8,29.99,SSE,166,0.0,1.0,83,0.00,,CLR,0.16,VWS V14.01,2013-05-21 22:30:00,
2013-05-21 18:33:00,78.2,72.6,29.99,South,189,0.0,1.0,83,0.00,,CLR,0.16,VWS V14.01,2013-05-21 22:33:00,
2013-05-21 18:38:00,78.1,72.2,29.99,SSW,195,0.0,2.0,82,0.00,,CLR,0.16,VWS V14.01,2013-05-21 22:38:00,
2013-05-21 18:43:00,78.0,72.4,29.99,South,179,0.0,2.0,83,0.00,,CLR,0.16,VWS V14.01,2013-05-21 22:43:00,
2013-05-21 18:45:00,78.1,72.2,29.99,SSW,195,0.0,2.0,82,0.00,,CLR,0.16,VWS V14.01,2013-05-21 22:45:00,
2013-05-21 18:48:00,77.8,72.6,29.99,South,179,0.0,2.0,84,0.00,,CLR,0.16,VWS V14.01,2013-05-21 22:48:00,
2013-05-21 18:53:00,77.7,72.5,29.99,South,180,0.0,2.0,84,0.00,,CLR,0.16,VWS V14.01,2013-05-21 22:53:00,
2013-05-21 18:58:00,77.6,72.0,29.99,SW,227,2.0,4.0,83,0.00,,CLR,0.16,VWS V14.01,2013-05-21 22:58:00,
2013-05-21 19:00:00,77.7,72.5,29.99,South,180,0.0,2.0,84,0.00,,CLR,0.16,VWS V14.01,2013-05-21 23:00:00,
2013-05-21 19:03:00,77.5,72.3,29.99,SSW,203,0.0,4.0,84,0.00,,CLR,0.16,VWS V14.01,2013-05-21 23:03:00,
2013-05-21 19:08:00,77.6,72.4,29.99,SSW,202,0.0,4.0,84,0.00,,CLR,0.16,VWS V14.01,2013-05-21 23:08:00,
2013-05-21 19:13:00,77.5,71.9,29.99,South,187,0.0,1.0,83,0.00,,CLR,0.16,VWS V14.01,2013-05-21 23:13:00,
2013-05-21 19:15:00,77.6,72.0,29.99,SSW,202,0.0,4.0,83,0.00,,CLR,0.16,VWS V14.01,2013-05-21 23:15:00,
2013-05-21 19:18:00,77.4,72.2,29.98,SSE,164,0.0,3.0,84,0.00,,CLR,0.16,VWS V14.01,2013-05-21 23:18:00,
2013-05-21 19:23:00,77.3,72.1,29.98,South,175,0.0,3.0,84,0.00,,CLR,0.16,VWS V14.01,2013-05-21 23:23:00,
2013-05-21 19:28:00,77.1,71.9,29.98,South,175,0.0,1.0,84,0.00,,CLR,0.16,VWS V14.01,2013-05-21 23:28:00,
2013-05-21 19:30:00,77.3,72.1,29.98,South,175,1.0,3.0,84,0.00,,CLR,0.16,VWS V14.01,2013-05-21 23:30:00,
2013-05-21 19:33:00,76.9,71.7,29.98,South,173,0.0,2.0,84,0.00,,CLR,0.16,VWS V14.01,2013-05-21 23:33:00,
2013-05-21 19:38:00,76.7,71.9,29.98,SSE,163,1.0,2.0,85,0.00,,CLR,0.16,VWS V14.01,2013-05-21 23:38:00,
2013-05-21 19:43:00,76.5,71.7,29.98,SSE,163,0.0,3.0,85,0.00,,CLR,0.16,VWS V14.01,2013-05-21 23:43:00,
2013-05-21 19:45:00,76.7,71.9,29.98,SSE,163,3.0,3.0,85,0.00,,CLR,0.16,VWS V14.01,2013-05-21 23:45:00,
2013-05-21 19:48:00,76.3,71.8,29.98,SSW,193,0.0,3.0,86,0.00,,CLR,0.16,VWS V14.01,2013-05-21 23:48:00,
2013-05-21 19:53:00,76.2,71.7,29.97,SW,230,0.0,3.0,86,0.00,,CLR,0.16,VWS V14.01,2013-05-21 23:53:00,
2013-05-21 19:58:00,76.1,71.6,29.97,South,176,0.0,1.0,86,0.00,,CLR,0.16,VWS V14.01,2013-05-21 23:58:00,
2013-05-21 20:00:00,76.2,71.7,29.97,SW,230,0.0,3.0,86,0.00,,CLR,0.16,VWS V14.01,2013-05-22 00:00:00,
2013-05-21 20:03:00,75.9,71.4,29.97,South,176,0.0,1.0,86,0.00,,CLR,0.16,VWS V14.01,2013-05-22 00:03:00,
2013-05-21 20:08:00,75.8,71.3,29.97,South,178,0.0,1.0,86,0.00,,CLR,0.16,VWS V14.01,2013-05-22 00:08:00,
2013-05-21 20:13:00,75.6,71.5,29.97,South,178,0.0,1.0,87,0.00,,CLR,0.16,VWS V14.01,2013-05-22 00:13:00,
2013-05-21 20:15:00,75.8,71.3,29.97,South,178,0.0,1.0,86,0.00,,CLR,0.16,VWS V14.01,2013-05-22 00:15:00,
2013-05-21 20:18:00,75.4,71.3,29.97,South,178,0.0,1.0,87,0.00,,CLR,0.16,VWS V14.01,2013-05-22 00:18:00,
2013-05-21 20:23:00,75.3,71.5,29.97,South,178,0.0,1.0,88,0.00,,CLR,0.16,VWS V14.01,2013-05-22 00:23:00,
2013-05-21 20:28:00,75.2,71.7,29.98,South,178,0.0,0.0,89,0.00,,CLR,0.16,VWS V14.01,2013-05-22 00:28:00,
2013-05-21 20:30:00,75.3,71.5,29.97,South,178,0.0,1.0,88,0.00,,CLR,0.16,VWS V14.01,2013-05-22 00:30:00,
2013-05-21 20:33:00,75.1,71.6,29.98,South,178,0.0,0.0,89,0.00,,CLR,0.16,VWS V14.01,2013-05-22 00:33:00,
2013-05-21 20:38:00,74.9,71.1,29.98,South,178,0.0,0.0,88,0.00,,CLR,0.16,VWS V14.01,2013-05-22 00:38:00,
2013-05-21 20:43:00,74.7,71.2,29.98,South,178,0.0,0.0,89,0.00,,CLR,0.16,VWS V14.01,2013-05-22 00:43:00,
2013-05-21 20:45:00,74.9,71.1,29.98,South,178,0.0,0.0,88,0.00,,CLR,0.16,VWS V14.01,2013-05-22 00:45:00,
2013-05-21 20:48:00,74.5,71.1,29.98,South,180,0.0,2.0,89,0.00,,CLR,0.16,VWS V14.01,2013-05-22 00:48:00,
2013-05-21 20:53:00,74.3,70.8,29.98,South,180,0.0,2.0,89,0.00,,CLR,0.16,VWS V14.01,2013-05-22 00:53:00,
2013-05-21 20:58:00,74.2,70.8,29.99,South,180,0.0,0.0,89,0.00,,CLR,0.16,VWS V14.01,2013-05-22 00:58:00,
2013-05-21 21:00:00,74.3,70.8,29.98,South,180,0.0,2.0,89,0.00,,CLR,0.16,VWS V14.01,2013-05-22 01:00:00,
2013-05-21 21:03:00,74.0,70.9,29.99,South,180,0.0,0.0,90,0.00,,CLR,0.16,VWS V14.01,2013-05-22 01:03:00,
2013-05-21 21:08:00,73.9,70.8,29.99,South,180,0.0,1.0,90,0.00,,CLR,0.16,VWS V14.01,2013-05-22 01:08:00,
2013-05-21 21:13:00,73.8,70.7,29.99,South,180,0.0,0.0,90,0.00,,CLR,0.16,VWS V14.01,2013-05-22 01:13:00,
2013-05-21 21:15:00,73.9,70.8,29.99,South,180,0.0,1.0,90,0.00,,CLR,0.16,VWS V14.01,2013-05-22 01:15:00,
2013-05-21 21:18:00,73.6,70.5,29.99,South,180,0.0,0.0,90,0.00,,CLR,0.16,VWS V14.01,2013-05-22 01:18:00,
2013-05-21 21:23:00,73.5,70.7,29.99,South,180,0.0,0.0,91,0.00,,CLR,0.16,VWS V14.01,2013-05-22 01:23:00,
2013-05-21 21:28:00,73.3,70.5,29.99,South,180,0.0,0.0,91,0.00,,CLR,0.16,VWS V14.01,2013-05-22 01:28:00,
2013-05-21 21:30:00,73.5,70.7,29.99,South,180,0.0,0.0,91,0.00,,CLR,0.16,VWS V14.01,2013-05-22 01:30:00,
2013-05-21 21:33:00,73.1,70.3,30.00,South,180,0.0,0.0,91,0.00,,CLR,0.16,VWS V14.01,2013-05-22 01:33:00,
2013-05-21 21:38:00,72.9,70.4,30.00,South,180,0.0,0.0,92,0.00,,CLR,0.16,VWS V14.01,2013-05-22 01:38:00,
2013-05-21 21:43:00,72.8,70.7,30.00,South,180,0.0,0.0,93,0.00,,CLR,0.16,VWS V14.01,2013-05-22 01:43:00,
2013-05-21 21:45:00,72.9,70.4,30.00,South,180,0.0,0.0,92,0.00,,CLR,0.16,VWS V14.01,2013-05-22 01:45:00,
2013-05-21 21:48:00,72.7,70.6,30.00,South,180,0.0,0.0,93,0.00,,CLR,0.16,VWS V14.01,2013-05-22 01:48:00,
2013-05-21 21:53:00,72.6,70.5,29.99,South,180,0.0,0.0,93,0.00,,CLR,0.16,VWS V14.01,2013-05-22 01:53:00,
2013-05-21 21:58:00,72.5,70.4,30.00,South,180,0.0,0.0,93,0.00,,CLR,0.16,VWS V14.01,2013-05-22 01:58:00,
2013-05-21 22:00:00,72.6,70.5,29.99,South,180,0.0,0.0,93,0.00,,CLR,0.16,VWS V14.01,2013-05-22 02:00:00,
2013-05-21 22:03:00,72.4,70.6,30.00,South,180,0.0,0.0,94,0.00,,CLR,0.16,VWS V14.01,2013-05-22 02:03:00,
2013-05-21 22:08:00,72.4,70.6,30.00,South,180,0.0,0.0,94,0.00,,CLR,0.16,VWS V14.01,2013-05-22 02:08:00,
2013-05-21 22:13:00,72.3,70.5,30.01,South,180,0.0,0.0,94,0.00,,CLR,0.16,VWS V14.01,2013-05-22 02:13:00,
2013-05-21 22:15:00,72.4,70.6,30.00,South,180,0.0,0.0,94,0.00,,CLR,0.16,VWS V14.01,2013-05-22 02:15:00,
2013-05-21 22:18:00,72.2,70.4,30.01,South,180,0.0,0.0,94,0.00,,CLR,0.16,VWS V14.01,2013-05-22 02:18:00,
2013-05-21 22:23:00,72.1,70.3,30.01,South,180,0.0,0.0,94,0.00,,CLR,0.16,VWS V14.01,2013-05-22 02:23:00,
2013-05-21 22:28:00,72.0,70.2,30.01,South,180,0.0,0.0,94,0.00,,CLR,0.16,VWS V14.01,2013-05-22 02:28:00,
2013-05-21 22:30:00,72.1,70.3,30.01,South,180,0.0,0.0,94,0.00,,CLR,0.16,VWS V14.01,2013-05-22 02:30:00,
2013-05-21 22:33:00,71.8,70.0,30.01,South,180,0.0,0.0,94,0.00,,CLR,0.16,VWS V14.01,2013-05-22 02:33:00,
2013-05-21 22:38:00,71.7,69.9,30.01,South,180,0.0,0.0,94,0.00,,CLR,0.16,VWS V14.01,2013-05-22 02:38:00,
2013-05-21 22:43:00,71.6,70.1,30.01,South,180,0.0,0.0,95,0.00,,CLR,0.16,VWS V14.01,2013-05-22 02:43:00,
2013-05-21 22:45:00,71.7,69.9,30.01,South,180,0.0,0.0,94,0.00,,CLR,0.16,VWS V14.01,2013-05-22 02:45:00,
2013-05-21 22:58:00,71.3,69.8,30.01,South,180,0.0,0.0,95,0.00,,CLR,0.16,VWS V14.01,2013-05-22 02:58:00,
2013-05-21 23:00:00,72.6,70.5,29.99,South,180,0.0,0.0,93,0.00,,CLR,0.16,VWS V14.01,2013-05-22 03:00:00,
2013-05-21 23:03:00,71.2,69.7,30.01,South,180,0.0,0.0,95,0.00,,CLR,0.16,VWS V14.01,2013-05-22 03:03:00,
2013-05-21 23:08:00,71.1,69.6,30.01,South,180,0.0,1.0,95,0.00,,CLR,0.16,VWS V14.01,2013-05-22 03:08:00,
2013-05-21 23:13:00,71.1,69.6,30.01,South,180,0.0,0.0,95,0.00,,CLR,0.16,VWS V14.01,2013-05-22 03:13:00,
2013-05-21 23:15:00,71.1,69.6,30.01,South,180,0.0,1.0,95,0.00,,CLR,0.16,VWS V14.01,2013-05-22 03:15:00,
2013-05-21 23:18:00,71.0,69.5,30.01,South,180,0.0,1.0,95,0.00,,CLR,0.16,VWS V14.01,2013-05-22 03:18:00,
2013-05-21 23:23:00,71.0,69.5,30.02,South,180,0.0,1.0,95,0.00,,CLR,0.16,VWS V14.01,2013-05-22 03:23:00,
2013-05-21 23:28:00,70.9,69.4,30.02,South,180,0.0,0.0,95,0.00,,CLR,0.16,VWS V14.01,2013-05-22 03:28:00,
2013-05-21 23:30:00,71.0,69.5,30.02,South,180,0.0,1.0,95,0.00,,CLR,0.16,VWS V14.01,2013-05-22 03:30:00,
2013-05-21 23:33:00,70.9,69.4,30.02,South,180,0.0,0.0,95,0.00,,CLR,0.16,VWS V14.01,2013-05-22 03:33:00,
2013-05-21 23:38:00,70.8,69.3,30.02,South,180,0.0,0.0,95,0.00,,CLR,0.16,VWS V14.01,2013-05-22 03:38:00,
2013-05-21 23:43:00,70.8,69.3,30.02,South,180,0.0,0.0,95,0.00,,CLR,0.16,VWS V14.01,2013-05-22 03:43:00,
2013-05-21 23:45:00,70.8,69.3,30.02,South,180,0.0,0.0,95,0.00,,CLR,0.16,VWS V14.01,2013-05-22 03:45:00,
2013-05-21 23:48:00,70.8,69.6,30.02,South,180,0.0,0.0,96,0.00,,CLR,0.16,VWS V14.01,2013-05-22 03:48:00,
2013-05-21 23:53:00,70.8,69.6,30.02,South,180,0.0,0.0,96,0.00,,CLR,0.16,VWS V14.01,2013-05-22 03:53:00,
2013-05-21 23:58:00,70.8,69.6,30.02,South,180,0.0,0.0,96,0.00,,CLR,0.00,VWS V14.01,2013-05-22 03:58:00,